EDT,Max TemperatureF,Mean TemperatureF,Min TemperatureF,Max Dew PointF,MeanDew PointF,Min DewpointF,Max Humidity, Mean Humidity, Min Humidity, Max Sea Level PressureIn, Mean Sea Level PressureIn, Min Sea Level PressureIn, Max VisibilityMiles, Mean VisibilityMiles, Min VisibilityMiles, Max Wind SpeedMPH, Mean Wind SpeedMPH, Max Gust SpeedMPH,PrecipitationIn, CloudCover, Events, WindDirDegrees
2013-3-1,39,36,32,32,29,25,100,82,65,29.89,29.86,29.82,10,9,4,22,12,30,0.00,8,Snow,275
2013-3-2,35,30,25,27,23,19,86,74,59,29.91,29.86,29.82,10,8,2,21,9,29,0.00,8,Snow,284
2013-3-3,30,26,23,20,17,13,81,69,56,29.96,29.91,29.87,10,7,1,21,15,31,0.00,8,Snow,276
2013-3-4,44,34,24,22,15,9,79,50,30,30.09,30.03,29.96,10,10,5,24,13,33,0.00,4,Snow,260
2013-3-5,45,39,33,42,31,20,100,75,41,30.03,29.85,29.61,10,8,2,30,4,39,0.74,8,Rain-Snow,67
2013-3-6,35,31,27,35,26,22,100,84,77,30.11,29.85,29.61,10,5,0,29,18,40,0.02,8,Snow,273
2013-3-7,33,31,29,28,26,23,90,78,70,30.28,30.20,30.10,10,10,7,18,11,25,0.00,8,,283
2013-3-8,42,36,30,27,25,24,84,67,50,30.35,30.29,30.22,10,10,10,15,9,24,0.00,4,,287
2013-3-9,63,44,24,30,26,20,99,58,20,30.33,30.28,30.22,10,10,7,9,3,,0.00,0,,70
2013-3-10,65,54,42,32,30,27,59,42,24,30.26,30.20,30.14,10,10,10,14,8,18,0.00,2,,92
2013-3-11,57,53,50,52,43,31,100,70,41,30.15,30.00,29.84,10,10,5,17,7,29,0.49,6,Rain,156
2013-3-12,53,46,37,53,39,30,100,81,55,30.02,29.91,29.79,10,9,3,23,8,28,0.31,6,Rain,275
2013-3-13,39,33,28,34,24,14,100,70,52,30.15,30.04,29.99,10,8,0,25,11,36,0.04,6,Snow,271
2013-3-14,42,33,24,21,15,10,81,53,28,30.25,30.18,30.14,10,9,0,23,15,33,0.00,3,Snow,273
2013-3-15,56,43,30,36,28,18,66,55,41,30.17,30.03,29.91,10,10,10,21,12,29,0.00,1,,246
2013-3-16,70,57,45,55,46,35,98,68,41,29.91,29.82,29.72,10,10,7,33,15,43,0.01,2,Rain-Thunderstorm,250
2013-3-17,58,48,38,53,48,39,100,96,73,30.09,30.00,29.91,10,6,1,16,8,22,0.19,7,Rain,68
2013-3-18,40,38,36,39,37,35,100,98,90,30.09,30.00,29.86,10,8,2,17,11,23,0.48,8,Rain-Thunderstorm,80
2013-3-19,54,44,36,44,22,-5,100,53,14,30.05,29.94,29.83,10,8,1,30,11,44,0.10,3,Rain,272
2013-3-20,49,40,31,33,10,-4,97,33,17,30.06,29.95,29.80,10,10,1,21,13,33,0.00,3,Snow,259
2013-3-21,30,27,22,28,13,7,83,58,43,29.93,29.83,29.77,10,10,1,23,15,39,0.00,6,Snow,285
2013-3-22,45,30,17,18,13,11,83,52,27,30.01,29.97,29.93,10,10,10,14,7,22,0.00,2,,240
2013-3-23,50,42,33,35,27,17,89,61,47,30.01,29.97,29.90,10,10,10,9,3,,0.00,6,,241
2013-3-24,39,36,34,38,35,32,100,95,76,29.90,29.68,29.50,10,6,0,17,9,23,0.68,7,Rain-Snow,74
2013-3-25,36,33,30,36,29,24,100,86,68,29.80,29.58,29.47,10,4,0,31,17,45,0.06,8,Snow,266
2013-3-26,35,32,30,30,27,25,96,82,68,30.12,29.96,29.81,10,5,0,25,15,33,0.02,8,Snow,267
2013-3-27,37,33,29,31,23,19,96,67,53,30.23,30.18,30.12,10,9,1,22,13,29,0.01,8,Snow,269
2013-3-28,45,38,32,25,22,20,67,55,38,30.29,30.23,30.19,10,10,7,21,12,29,0.00,6,,276
2013-3-29,54,40,26,37,25,18,97,61,25,30.31,30.26,30.19,10,10,10,17,6,24,0.00,1,,255
2013-3-30,61,47,34,42,34,24,100,67,27,30.24,30.17,30.06,10,8,0,16,7,17,0.00,3,Fog,276
2013-3-31,59,52,45,52,47,34,100,87,58,30.06,29.91,29.85,10,8,1,25,7,34,0.34,7,Rain,276